Time;durP1;ratioP1;P1;durP2;ratioP2;P2;SDS_P1;SDS_P2;PMS_P1;PMS_P2;Temp;Humidity;BMP_temperature;BMP_pressure;BME280_temperature;BME280_humidity;BME280_pressure;Samples;Min_cycle;Max_cycle;Signal;HPM_P1;HPM_P2
2023/01/30 00:00:51;;;;;;;20.40;15.80;;;;;;;0.09;85.85;97432.81;5110308;28;20201;-61
2023/01/30 00:03:19;;;;;;;18.43;15.13;;;;;;;0.05;87.69;97429.50;5110679;28;20318;-59
2023/01/30 00:05:45;;;;;;;19.13;15.43;;;;;;;0.00;87.01;97429.66;5107384;28;20207;-61
2023/01/30 00:08:13;;;;;;;21.23;16.37;;;;;;;0.04;87.07;97430.41;5109367;28;20241;-61
2023/01/30 00:10:39;;;;;;;20.80;16.00;;;;;;;-0.05;88.20;97421.22;5110201;28;20692;-62
2023/01/30 00:13:06;;;;;;;23.17;16.63;;;;;;;-0.09;88.19;97424.00;5111289;28;20208;-62
2023/01/30 00:15:32;;;;;;;23.17;16.77;;;;;;;-0.05;87.62;97425.56;5110488;28;20208;-61
2023/01/30 00:17:58;;;;;;;18.50;14.93;;;;;;;-0.17;87.67;97426.88;5109838;28;20512;-63
2023/01/30 00:20:27;;;;;;;20.17;15.23;;;;;;;-0.14;90.27;97424.16;5110368;28;20235;-62
2023/01/30 00:22:53;;;;;;;20.30;15.40;;;;;;;-0.23;89.03;97426.28;5114388;28;20228;-63
2023/01/30 00:25:20;;;;;;;22.83;17.10;;;;;;;-0.26;88.90;97422.03;5114629;28;20207;-61
2023/01/30 00:27:46;;;;;;;20.57;15.97;;;;;;;-0.40;90.86;97415.69;5115036;28;20198;-62
2023/01/30 00:30:14;;;;;;;21.37;16.57;;;;;;;-0.47;91.40;97409.88;5115189;28;20212;-62
2023/01/30 00:32:40;;;;;;;21.57;15.67;;;;;;;-0.44;90.54;97414.94;5114817;28;20211;-63
2023/01/30 00:35:07;;;;;;;18.90;15.40;;;;;;;-0.46;90.88;97411.53;5113953;28;20215;-63
2023/01/30 00:37:35;;;;;;;20.70;16.20;;;;;;;-0.46;91.95;97408.13;5114626;28;20218;-63
2023/01/30 00:40:02;;;;;;;20.67;15.73;;;;;;;-0.48;91.37;97415.97;5113553;28;20234;-62
2023/01/30 00:47:57;;;;;;;20.67;15.67;;;;;;;-0.44;91.24;97412.34;5113724;28;20207;-63
2023/01/30 00:50:23;;;;;;;21.00;15.50;;;;;;;-0.33;91.27;97409.34;5114015;28;20219;-63
2023/01/30 00:52:51;;;;;;;20.40;15.83;;;;;;;-0.40;92.14;97403.53;5113553;28;20221;-61
2023/01/30 00:55:18;;;;;;;21.37;15.80;;;;;;;-0.33;91.40;97399.81;5114004;28;20207;-61
2023/01/30 00:57:44;;;;;;;20.83;15.57;;;;;;;-0.29;91.40;97390.97;5113833;28;20207;-62
2023/01/30 01:00:12;;;;;;;20.27;15.53;;;;;;;-0.31;92.01;97389.31;5114224;28;20568;-62
2023/01/30 01:02:40;;;;;;;19.97;15.67;;;;;;;-0.28;91.16;97387.47;5113216;28;20237;-62
2023/01/30 01:05:07;;;;;;;20.90;15.20;;;;;;;-0.22;90.51;97387.25;5113709;28;20511;-63
2023/01/30 01:07:34;;;;;;;22.27;16.47;;;;;;;-0.23;89.38;97380.34;5113408;28;20198;-62
2023/01/30 01:10:02;;;;;;;20.47;15.70;;;;;;;-0.24;89.33;97376.03;5113149;28;20253;-63
2023/01/30 01:12:28;;;;;;;20.97;15.50;;;;;;;-0.21;90.15;97380.25;5113312;28;20192;-61
2023/01/30 01:14:54;;;;;;;19.73;15.47;;;;;;;-0.22;89.58;97376.84;5112909;28;20644;-62
2023/01/30 01:17:21;;;;;;;18.73;14.83;;;;;;;-0.22;89.29;97376.84;5113384;28;20215;-62
2023/01/30 01:19:48;;;;;;;19.83;14.97;;;;;;;-0.18;90.80;97382.78;5112933;28;20675;-62
2023/01/30 01:22:14;;;;;;;21.40;15.87;;;;;;;-0.20;90.70;97385.41;5112476;28;20214;-63
2023/01/30 01:24:40;;;;;;;20.10;15.30;;;;;;;-0.19;89.80;97389.72;5112219;28;20218;-61
2023/01/30 01:27:08;;;;;;;20.20;15.23;;;;;;;-0.18;90.11;97394.00;5112570;28;20208;-62
2023/01/30 01:29:35;;;;;;;20.73;15.43;;;;;;;-0.26;90.52;97396.06;5112902;28;20193;-62
2023/01/30 01:32:01;;;;;;;20.27;15.67;;;;;;;-0.30;91.67;97398.81;5112792;28;20213;-62
2023/01/30 01:34:28;;;;;;;19.07;15.53;;;;;;;-0.37;90.47;97395.63;5115498;28;20246;-63
2023/01/30 01:36:54;;;;;;;22.07;15.87;;;;;;;-0.32;91.62;97395.44;5119306;28;20202;-62
2023/01/30 01:39:22;;;;;;;19.83;14.83;;;;;;;-0.35;92.00;97387.75;5130211;28;20219;-63
2023/01/30 01:41:47;;;;;;;17.00;14.10;;;;;;;-0.30;90.27;97389.28;5126010;28;20227;-63
2023/01/30 01:44:15;;;;;;;20.47;15.50;;;;;;;-0.32;90.94;97374.66;5119342;28;20211;-62
2023/01/30 01:46:45;;;;;;;22.17;16.07;;;;;;;-0.24;90.28;97377.78;5121972;28;20201;-64
2023/01/30 01:49:15;;;;;;;20.03;15.37;;;;;;;-0.21;90.74;97377.66;5119363;28;20211;-63
2023/01/30 01:51:49;;;;;;;21.17;15.57;;;;;;;-0.23;91.15;97358.69;5130080;28;20197;-62
2023/01/30 01:54:18;;;;;;;20.53;15.73;;;;;;;-0.21;90.22;97352.53;5131657;28;20598;-64
2023/01/30 01:56:47;;;;;;;20.60;15.70;;;;;;;-0.20;89.96;97343.84;5133586;28;20606;-62
2023/01/30 01:59:21;;;;;;;22.13;15.43;;;;;;;-0.25;89.67;97337.13;5123852;28;20219;-62
2023/01/30 02:01:49;;;;;;;20.17;15.57;;;;;;;-0.34;92.06;97350.47;5112930;28;20985;-62
2023/01/30 02:05:00;;;;;;;19.33;15.20;;;;;;;-0.43;92.17;97356.88;5112839;28;20218;-63
2023/01/30 02:07:03;;;;;;;20.67;15.20;;;;;;;-0.47;92.71;97363.09;5112674;28;20290;-63
2023/01/30 02:09:29;;;;;;;18.93;14.47;;;;;;;-0.58;93.84;97366.09;5112874;28;20210;-62
2023/01/30 02:11:57;;;;;;;21.23;15.20;;;;;;;-0.55;93.50;97357.34;5112653;28;20212;-63
2023/01/30 02:14:26;;;;;;;21.77;16.73;;;;;;;-0.61;93.52;97348.03;5112317;28;20676;-62
2023/01/30 02:16:52;;;;;;;19.33;15.03;;;;;;;-0.71;93.73;97351.88;5111580;28;20638;-62
2023/01/30 02:19:27;;;;;;;19.97;15.60;;;;;;;-0.75;94.92;97360.69;5111549;28;20326;-62
2023/01/30 02:22:14;;;;;;;20.50;15.17;;;;;;;-0.75;93.05;97363.31;5111981;28;20202;-62
2023/01/30 02:25:00;;;;;;;19.53;14.97;;;;;;;-0.85;95.36;97355.91;5112333;28;20209;-62
2023/01/30 02:28:05;;;;;;;21.47;15.97;;;;;;;-0.85;96.17;97366.28;5111764;28;20197;-63
2023/01/30 02:30:55;;;;;;;21.20;15.73;;;;;;;-0.87;94.52;97370.69;5063574;28;20203;-62
2023/01/30 02:33:26;;;;;;;20.17;15.80;;;;;;;-0.93;96.16;97371.75;5112322;28;20189;-62
2023/01/30 02:36:00;;;;;;;20.47;15.50;;;;;;;-0.79;95.29;97382.50;5112537;28;20198;-62
2023/01/30 02:38:34;;;;;;;21.03;15.97;;;;;;;-0.80;94.24;97382.53;5112686;28;20194;-61
2023/01/30 02:41:10;;;;;;;21.80;16.03;;;;;;;-0.85;92.47;97385.28;5112220;28;20196;-61
2023/01/30 02:43:40;;;;;;;22.57;15.60;;;;;;;-0.92;95.23;97383.81;5112444;28;20209;-62
2023/01/30 02:46:14;;;;;;;20.30;15.27;;;;;;;-0.89;94.10;97403.66;5111295;28;20228;-62
2023/01/30 02:48:43;;;;;;;20.43;15.50;;;;;;;-0.83;96.06;97413.81;5111997;28;20297;-63
2023/01/30 02:51:14;;;;;;;22.87;15.27;;;;;;;-0.82;94.26;97425.91;5109225;28;20211;-62
2023/01/30 02:53:41;;;;;;;22.53;16.77;;;;;;;-0.80;93.71;97429.28;5110178;28;20200;-62
2023/01/30 02:56:07;;;;;;;22.70;16.30;;;;;;;-0.81;95.19;97432.75;5111950;28;20221;-63
2023/01/30 02:58:37;;;;;;;20.50;16.00;;;;;;;-0.78;94.86;97440.47;5112258;28;20534;-62
2023/01/30 03:01:19;;;;;;;22.33;16.57;;;;;;;-0.77;94.58;97455.13;5111556;28;20234;-62
2023/01/30 03:04:08;;;;;;;22.40;16.83;;;;;;;-0.74;93.11;97455.00;5111646;28;20211;-62
2023/01/30 03:06:45;;;;;;;22.23;16.53;;;;;;;-0.75;93.54;97446.41;5111948;28;20209;-62
2023/01/30 03:09:16;;;;;;;22.67;17.13;;;;;;;-0.75;94.03;97436.00;5111328;28;20202;-62
2023/01/30 03:11:47;;;;;;;22.10;17.33;;;;;;;-0.74;94.47;97439.44;5111640;28;20214;-62
2023/01/30 03:14:19;;;;;;;23.83;18.30;;;;;;;-0.77;93.11;97455.13;5111516;28;20190;-62
2023/01/30 03:16:49;;;;;;;22.70;16.87;;;;;;;-0.68;94.00;97465.19;5110931;28;20195;-62
2023/01/30 03:19:19;;;;;;;21.73;17.40;;;;;;;-0.74;92.48;97445.47;5110981;28;20206;-62
2023/01/30 03:21:45;;;;;;;23.70;16.77;;;;;;;-0.68;93.05;97454.81;5111221;28;20542;-62
2023/01/30 03:24:12;;;;;;;24.47;17.67;;;;;;;-0.77;92.65;97475.91;5110785;28;20245;-63
2023/01/30 03:26:42;;;;;;;22.07;17.07;;;;;;;-0.74;93.52;97486.16;5111252;28;20211;-61
2023/01/30 03:29:09;;;;;;;23.73;18.13;;;;;;;-0.69;92.40;97474.75;5111415;28;20221;-62
2023/01/30 03:31:35;;;;;;;24.30;17.53;;;;;;;-0.70;92.46;97467.00;5111074;28;20206;-61
2023/01/30 03:34:03;;;;;;;22.17;17.67;;;;;;;-0.70;93.82;97472.19;5110860;28;20549;-62
2023/01/30 03:36:30;;;;;;;21.97;17.20;;;;;;;-0.74;93.51;97466.25;5111287;28;20213;-62
2023/01/30 03:38:57;;;;;;;24.47;17.80;;;;;;;-0.71;91.92;97455.75;5110760;28;20515;-62
2023/01/30 03:41:23;;;;;;;23.27;17.60;;;;;;;-0.65;91.53;97444.31;5110082;28;20211;-62
2023/01/30 03:43:50;;;;;;;23.80;17.67;;;;;;;-0.60;91.03;97452.75;5111486;28;20217;-62
2023/01/30 03:46:16;;;;;;;22.90;17.43;;;;;;;-0.62;91.93;97454.59;5111687;28;20227;-62
2023/01/30 03:48:43;;;;;;;24.40;18.03;;;;;;;-0.75;92.48;97455.94;5113765;28;20705;-62
2023/01/30 03:51:11;;;;;;;23.23;17.63;;;;;;;-0.77;92.51;97475.91;5112706;28;20212;-61
2023/01/30 03:53:37;;;;;;;22.53;17.50;;;;;;;-0.77;92.99;97465.50;5111529;28;20221;-62
2023/01/30 03:56:04;;;;;;;22.70;16.63;;;;;;;-0.67;96.25;97456.47;5111827;28;20200;-62
2023/01/30 03:58:30;;;;;;;22.73;17.93;;;;;;;-0.67;95.21;97474.66;5114644;28;20197;-62
2023/01/30 04:00:57;;;;;;;21.73;16.37;;;;;;;-0.66;95.25;97481.56;5114560;28;20252;-63
2023/01/30 04:03:24;;;;;;;22.30;17.73;;;;;;;-0.66;95.16;97478.97;5115539;28;20229;-62
2023/01/30 04:05:50;;;;;;;22.90;17.63;;;;;;;-0.61;93.98;97479.66;5114689;28;20194;-62
2023/01/30 04:08:18;;;;;;;26.73;18.20;;;;;;;-0.62;94.19;97496.13;5115292;28;20197;-62
2023/01/30 04:10:44;;;;;;;23.37;17.13;;;;;;;-0.64;93.01;97474.59;5115196;28;20215;-62
2023/01/30 04:13:11;;;;;;;21.73;16.83;;;;;;;-0.58;94.47;97470.00;5115592;28;20222;-62
2023/01/30 04:15:37;;;;;;;23.53;17.23;;;;;;;-0.48;93.54;97447.13;5114716;28;20211;-62
2023/01/30 04:18:04;;;;;;;25.50;18.47;;;;;;;-0.47;92.97;97441.03;5114863;28;20210;-62
2023/01/30 04:20:30;;;;;;;22.83;16.63;;;;;;;-0.42;93.29;97459.88;5114889;28;20204;-62
2023/01/30 04:22:57;;;;;;;22.40;17.43;;;;;;;-0.35;94.35;97479.53;5114494;28;20229;-61
2023/01/30 04:25:25;;;;;;;24.17;17.70;;;;;;;-0.30;92.58;97482.84;5113560;28;20636;-63
2023/01/30 04:27:52;;;;;;;23.43;17.73;;;;;;;-0.26;94.04;97471.44;5114184;28;20203;-61
2023/01/30 04:30:20;;;;;;;21.83;17.07;;;;;;;-0.29;93.18;97463.75;5114074;28;20211;-62
2023/01/30 04:32:47;;;;;;;23.40;17.93;;;;;;;-0.35;92.66;97469.16;5114820;28;20205;-62
2023/01/30 04:35:13;;;;;;;24.27;18.20;;;;;;;-0.37;94.61;97463.19;5114399;28;20207;-62
2023/01/30 04:37:40;;;;;;;22.07;16.53;;;;;;;-0.37;92.94;97460.59;5115108;28;21048;-64
2023/01/30 04:40:07;;;;;;;24.60;17.93;;;;;;;-0.44;93.95;97448.72;5132690;28;20200;-63
2023/01/30 04:42:35;;;;;;;22.37;16.70;;;;;;;-0.42;95.08;97433.91;5126773;28;20572;-62
2023/01/30 04:45:02;;;;;;;21.53;17.40;;;;;;;-0.36;95.43;97420.72;5125899;28;20251;-62
2023/01/30 04:47:28;;;;;;;22.67;17.67;;;;;;;-0.41;93.76;97433.00;5121781;28;20201;-61
2023/01/30 04:49:55;;;;;;;26.33;18.23;;;;;;;-0.42;93.12;97425.25;5114103;28;20210;-63
2023/01/30 04:52:21;;;;;;;21.60;17.53;;;;;;;-0.51;92.95;97398.75;5113648;28;20200;-63
2023/01/30 04:54:47;;;;;;;22.10;17.00;;;;;;;-0.40;96.22;97382.75;5114167;28;20268;-62
2023/01/30 04:57:14;;;;;;;21.57;16.77;;;;;;;-0.43;93.89;97369.88;5113995;28;20223;-62
2023/01/30 04:59:42;;;;;;;25.23;18.40;;;;;;;-0.34;92.56;97368.66;5113945;28;20218;-61
2023/01/30 05:02:08;;;;;;;22.07;17.13;;;;;;;-0.44;94.04;97365.59;5112158;28;20252;-63
2023/01/30 05:04:35;;;;;;;22.73;17.23;;;;;;;-0.39;94.06;97368.84;5113240;28;20223;-62
2023/01/30 05:07:01;;;;;;;22.80;17.47;;;;;;;-0.38;93.91;97365.34;5113561;28;20218;-62
2023/01/30 05:09:28;;;;;;;21.93;17.60;;;;;;;-0.39;94.27;97363.63;5112677;28;20210;-62
2023/01/30 05:11:54;;;;;;;23.50;17.67;;;;;;;-0.33;95.34;97366.00;5113291;28;20216;-62
2023/01/30 05:14:21;;;;;;;23.10;16.97;;;;;;;-0.35;93.51;97391.19;5113753;28;20197;-62
2023/01/30 05:16:48;;;;;;;23.23;18.03;;;;;;;-0.41;93.72;97394.03;5112813;28;20210;-62
2023/01/30 05:19:15;;;;;;;24.20;17.87;;;;;;;-0.47;95.88;97402.06;5112692;28;20210;-62
2023/01/30 05:21:41;;;;;;;24.50;18.40;;;;;;;-0.56;94.85;97382.47;5112523;28;20197;-62
2023/01/30 05:24:08;;;;;;;22.40;17.43;;;;;;;-0.62;95.60;97387.06;5113050;28;20566;-62
2023/01/30 05:26:35;;;;;;;23.30;17.27;;;;;;;-0.59;96.19;97380.00;5113379;28;20210;-62
2023/01/30 05:29:01;;;;;;;22.17;17.07;;;;;;;-0.64;97.34;97386.28;5113132;28;20215;-63
2023/01/30 05:31:28;;;;;;;23.00;17.77;;;;;;;-0.63;96.47;97380.16;5113649;28;20298;-62
2023/01/30 05:33:56;;;;;;;22.70;17.00;;;;;;;-0.62;98.01;97368.88;5113623;28;20214;-63
2023/01/30 05:36:23;;;;;;;25.63;18.73;;;;;;;-0.66;97.95;97365.53;5112181;28;20533;-62
2023/01/30 05:38:49;;;;;;;24.53;18.13;;;;;;;-0.76;98.65;97359.00;5113201;28;20205;-63
2023/01/30 05:41:16;;;;;;;23.40;17.30;;;;;;;-0.80;98.54;97370.41;5112107;28;21343;-61
2023/01/30 05:43:43;;;;;;;21.37;16.47;;;;;;;-0.79;98.12;97368.66;5112552;28;20738;-63
2023/01/30 05:46:11;;;;;;;22.70;17.47;;;;;;;-0.82;98.74;97363.56;5111848;28;20203;-63
2023/01/30 05:48:38;;;;;;;22.10;15.93;;;;;;;-0.83;98.71;97362.72;5112883;28;20208;-63
2023/01/30 05:51:06;;;;;;;23.33;17.17;;;;;;;-0.91;98.88;97358.69;5113079;28;20215;-62
2023/01/30 05:53:34;;;;;;;23.10;17.53;;;;;;;-0.93;98.61;97352.75;5113284;28;20577;-62
2023/01/30 05:56:01;;;;;;;24.50;18.00;;;;;;;-0.87;98.13;97340.38;5112590;28;20532;-62
2023/01/30 05:58:29;;;;;;;23.03;17.43;;;;;;;-0.94;98.17;97351.88;5113304;28;20215;-63
2023/01/30 06:01:00;;;;;;;24.07;17.93;;;;;;;-0.90;97.59;97365.59;5112379;28;20681;-63
2023/01/30 06:03:26;;;;;;;24.13;17.87;;;;;;;-0.91;96.95;97379.47;5112416;28;20214;-62
2023/01/30 06:05:53;;;;;;;23.67;17.33;;;;;;;-0.83;97.99;97380.91;5111588;28;20203;-62
2023/01/30 06:08:21;;;;;;;24.87;17.67;;;;;;;-0.89;98.90;97382.88;5112354;28;20209;-62
2023/01/30 06:10:48;;;;;;;24.10;17.60;;;;;;;-0.94;97.91;97375.25;5111684;28;20213;-62
2023/01/30 06:13:15;;;;;;;24.80;18.03;;;;;;;-0.91;98.87;97376.88;5112318;28;20202;-63
2023/01/30 06:15:41;;;;;;;23.33;18.07;;;;;;;-0.89;98.55;97378.53;5110718;28;20213;-60
2023/01/30 06:18:08;;;;;;;23.83;17.80;;;;;;;-0.88;99.15;97379.34;5111906;28;20202;-61
2023/01/30 06:20:34;;;;;;;24.23;18.17;;;;;;;-0.94;98.20;97384.78;5110588;28;20227;-61
2023/01/30 06:23:01;;;;;;;24.17;18.20;;;;;;;-0.96;98.65;97369.28;5111553;28;20665;-61
2023/01/30 06:25:29;;;;;;;24.83;17.97;;;;;;;-1.00;97.10;97365.09;5111983;28;20193;-60
2023/01/30 06:27:55;;;;;;;23.53;17.70;;;;;;;-0.95;97.60;97367.50;5111170;28;20205;-61
2023/01/30 06:30:22;;;;;;;26.00;18.63;;;;;;;-1.08;97.55;97362.78;5112111;28;20199;-61
2023/01/30 06:32:50;;;;;;;24.30;17.47;;;;;;;-0.96;98.33;97350.25;5111940;28;20202;-61
2023/01/30 06:35:16;;;;;;;26.60;19.33;;;;;;;-0.94;98.13;97356.22;5111413;28;20206;-61
2023/01/30 06:37:48;;;;;;;25.67;18.80;;;;;;;-0.79;96.42;97350.47;5112122;28;20214;-61
2023/01/30 06:40:14;;;;;;;24.07;17.80;;;;;;;-0.83;96.25;97336.75;5111498;28;20835;-62
2023/01/30 06:42:45;;;;;;;27.57;18.30;;;;;;;-0.79;95.50;97345.28;5112081;28;20520;-62
2023/01/30 06:45:12;;;;;;;28.60;19.63;;;;;;;-0.82;95.52;97376.56;5111710;28;20209;-62
2023/01/30 06:47:44;;;;;;;23.37;17.63;;;;;;;-0.68;94.82;97388.13;5111624;28;20534;-61
2023/01/30 06:50:11;;;;;;;27.47;18.87;;;;;;;-0.74;95.71;97382.28;5111408;28;20528;-61
2023/01/30 06:52:40;;;;;;;25.87;18.50;;;;;;;-0.77;97.56;97382.41;5111054;28;20276;-61
2023/01/30 06:55:08;;;;;;;24.73;18.33;;;;;;;-0.81;96.04;97380.81;5110981;28;20202;-61
2023/01/30 06:57:34;;;;;;;25.43;19.07;;;;;;;-0.67;95.41;97413.19;5110823;28;20209;-61
2023/01/30 07:00:03;;;;;;;25.27;19.23;;;;;;;-0.67;94.30;97443.50;5111256;28;20209;-60
2023/01/30 07:02:34;;;;;;;26.83;19.47;;;;;;;-0.71;94.53;97444.53;5110834;28;20237;-61
2023/01/30 07:05:00;;;;;;;26.47;19.73;;;;;;;-0.73;94.19;97446.31;5112373;28;20213;-61
2023/01/30 07:07:27;;;;;;;25.23;18.83;;;;;;;-0.73;96.72;97444.56;5112272;28;20211;-61
2023/01/30 07:09:53;;;;;;;24.50;18.87;;;;;;;-0.70;94.80;97446.22;5117933;28;20210;-62
2023/01/30 07:12:20;;;;;;;23.80;17.83;;;;;;;-0.73;95.23;97447.19;5124980;28;20223;-62
2023/01/30 07:14:46;;;;;;;26.97;19.33;;;;;;;-0.70;94.70;97446.22;5120433;28;20198;-62
2023/01/30 07:17:14;;;;;;;27.10;18.53;;;;;;;-0.66;93.94;97447.81;5110929;28;20276;-59
2023/01/30 07:19:42;;;;;;;27.17;19.37;;;;;;;-0.81;94.38;97454.38;5118818;28;20205;-61
2023/01/30 07:22:08;;;;;;;27.73;19.17;;;;;;;-0.76;94.24;97472.41;5116731;28;20204;-60
2023/01/30 07:24:35;;;;;;;24.67;18.10;;;;;;;-0.76;94.60;97472.41;5114792;28;20220;-61
2023/01/30 07:27:01;;;;;;;24.63;18.90;;;;;;;-0.83;95.22;97470.94;5108977;28;20216;-59
2023/01/30 07:29:28;;;;;;;26.50;19.23;;;;;;;-0.72;94.12;97474.00;5111207;28;20343;-61
2023/01/30 07:31:54;;;;;;;25.93;19.23;;;;;;;-0.81;94.69;97469.97;5115848;28;20231;-60
2023/01/30 07:34:22;;;;;;;25.63;18.17;;;;;;;-0.76;94.54;97475.00;5117402;28;20287;-57
2023/01/30 07:36:49;;;;;;;28.83;19.70;;;;;;;-0.87;95.00;97477.13;5118262;28;20205;-61
2023/01/30 07:39:15;;;;;;;26.70;18.73;;;;;;;-0.87;94.81;97490.09;5119483;28;20200;-61
2023/01/30 07:41:42;;;;;;;25.37;18.33;;;;;;;-0.89;95.64;97491.91;5119454;28;20215;-60
2023/01/30 07:44:08;;;;;;;26.57;18.63;;;;;;;-0.82;95.87;97476.09;5117835;28;20225;-61
2023/01/30 07:46:35;;;;;;;24.73;18.67;;;;;;;-0.85;94.94;97472.75;5114952;28;20199;-62
2023/01/30 07:49:03;;;;;;;28.73;19.53;;;;;;;-0.78;96.25;97479.41;5118642;28;20600;-60
2023/01/30 07:51:31;;;;;;;27.83;19.50;;;;;;;-0.74;94.82;97475.78;5118434;28;20221;-61
2023/01/30 07:53:57;;;;;;;25.80;17.70;;;;;;;-0.73;94.54;97478.34;5118750;28;20787;-60
2023/01/30 07:56:24;;;;;;;23.40;17.87;;;;;;;-0.69;95.62;97463.50;5118085;28;20204;-61
2023/01/30 07:58:51;;;;;;;22.43;17.03;;;;;;;-0.64;95.18;97456.41;5116543;28;20222;-60
2023/01/30 08:01:17;;;;;;;22.57;17.20;;;;;;;-0.66;95.45;97442.59;5116828;28;20238;-60
2023/01/30 08:03:45;;;;;;;24.50;17.13;;;;;;;-0.56;96.18;97428.38;5117358;28;20225;-61
2023/01/30 08:06:12;;;;;;;22.03;16.87;;;;;;;-0.64;94.54;97430.44;5117252;28;20280;-59
2023/01/30 08:08:40;;;;;;;24.77;17.93;;;;;;;-0.60;92.32;97455.34;5117333;28;20256;-62
2023/01/30 08:11:07;;;;;;;24.13;18.23;;;;;;;-0.56;94.90;97454.34;5116738;28;20205;-61
2023/01/30 08:13:33;;;;;;;22.70;17.73;;;;;;;-0.45;93.06;97451.34;5116854;28;20204;-61
2023/01/30 08:16:00;;;;;;;23.53;18.07;;;;;;;-0.38;92.32;97448.47;5116975;28;20210;-61
2023/01/30 08:18:28;;;;;;;24.50;17.63;;;;;;;-0.35;91.73;97456.16;5114299;28;20203;-60
2023/01/30 08:20:57;;;;;;;23.67;17.60;;;;;;;-0.35;91.83;97463.94;5112603;28;20594;-60
2023/01/30 08:23:23;;;;;;;23.87;17.90;;;;;;;-0.27;91.32;97472.31;5115464;28;20201;-59
2023/01/30 08:25:54;;;;;;;23.10;16.93;;;;;;;-0.29;92.53;97468.94;5117121;28;20675;-60
2023/01/30 08:28:20;;;;;;;21.80;17.23;;;;;;;-0.23;92.62;97479.09;5115405;28;20196;-60
2023/01/30 08:30:47;;;;;;;21.57;16.17;;;;;;;-0.08;93.44;97483.75;5117455;28;20206;-60
2023/01/30 08:33:14;;;;;;;22.40;17.27;;;;;;;-0.03;91.46;97488.75;5117327;28;20193;-60
2023/01/30 08:35:41;;;;;;;24.07;16.47;;;;;;;-0.06;89.71;97486.25;5117837;28;20205;-61
2023/01/30 08:38:08;;;;;;;23.57;17.53;;;;;;;-0.04;90.19;97497.47;5118299;28;20207;-60
2023/01/30 08:40:35;;;;;;;20.17;16.20;;;;;;;-0.06;89.15;97514.84;5118716;28;20219;-60
2023/01/30 08:43:03;;;;;;;21.33;16.43;;;;;;;0.08;90.03;97509.13;5117384;28;20214;-62
2023/01/30 08:45:30;;;;;;;19.67;15.10;;;;;;;0.11;89.48;97511.66;5113282;28;20221;-61
2023/01/30 08:47:58;;;;;;;23.17;15.80;;;;;;;0.20;89.12;97499.13;5116086;28;20233;-62
2023/01/30 08:50:24;;;;;;;20.90;15.40;;;;;;;0.34;89.10;97498.59;5112792;28;20203;-61
2023/01/30 08:52:51;;;;;;;21.50;16.47;;;;;;;0.31;88.21;97502.16;5113990;28;20208;-62
2023/01/30 08:55:17;;;;;;;23.20;16.90;;;;;;;0.40;87.58;97503.53;5112308;28;20234;-61
2023/01/30 08:57:44;;;;;;;22.40;15.23;;;;;;;0.35;86.76;97497.69;5112999;28;20215;-61
2023/01/30 09:00:13;;;;;;;18.97;15.10;;;;;;;0.34;87.05;97495.97;5113427;28;20227;-58
2023/01/30 09:02:40;;;;;;;19.27;15.37;;;;;;;0.59;87.35;97486.31;5111184;28;20229;-61
2023/01/30 09:05:07;;;;;;;20.40;15.50;;;;;;;0.68;87.64;97483.31;5115667;28;20223;-61
2023/01/30 09:07:34;;;;;;;18.83;15.13;;;;;;;0.84;84.78;97487.00;5119372;28;20223;-60
2023/01/30 09:10:00;;;;;;;24.60;17.47;;;;;;;0.97;85.01;97476.91;5118813;28;20201;-62
2023/01/30 09:12:27;;;;;;;19.77;15.73;;;;;;;1.15;84.62;97480.50;5115567;28;20633;-67
2023/01/30 09:14:54;;;;;;;22.20;15.80;;;;;;;1.55;83.35;97496.09;5112737;28;20218;-60
2023/01/30 09:17:22;;;;;;;20.17;16.10;;;;;;;2.08;79.93;97495.44;5113435;28;20203;-62
2023/01/30 09:19:49;;;;;;;21.53;15.27;;;;;;;2.69;77.21;97490.81;5113175;28;20218;-61
2023/01/30 09:22:16;;;;;;;22.07;16.07;;;;;;;3.69;73.21;97504.84;5112151;28;20240;-60
2023/01/30 09:24:43;;;;;;;20.20;16.43;;;;;;;4.79;70.02;97503.16;5113083;28;20560;-63
2023/01/30 09:27:09;;;;;;;32.53;23.37;;;;;;;5.40;68.71;97503.09;5113978;28;20208;-60
2023/01/30 09:29:36;;;;;;;20.47;15.63;;;;;;;5.63;65.32;97506.13;5113807;28;20235;-62
2023/01/30 09:32:03;;;;;;;21.20;17.40;;;;;;;5.98;62.60;97495.22;5112868;28;20212;-62
2023/01/30 09:34:31;;;;;;;21.50;16.47;;;;;;;6.85;60.75;97497.56;5112799;28;20205;-61
2023/01/30 09:36:59;;;;;;;21.03;16.47;;;;;;;6.86;58.65;97513.25;5113291;28;20662;-63
2023/01/30 09:39:26;;;;;;;19.40;15.70;;;;;;;7.07;57.71;97526.78;5113269;28;20315;-62
2023/01/30 09:42:00;;;;;;;16.60;14.80;;;;;;;6.78;57.85;97522.56;5113004;28;20205;-63
2023/01/30 09:44:44;;;;;;;17.77;14.70;;;;;;;5.96;59.36;97522.47;5109690;28;20574;-60
2023/01/30 09:47:13;;;;;;;18.17;15.13;;;;;;;5.50;62.22;97519.09;5109625;28;20214;-62
2023/01/30 09:49:50;;;;;;;22.13;15.30;;;;;;;5.14;63.99;97527.34;5109822;28;20622;-61
2023/01/30 09:52:23;;;;;;;18.20;14.90;;;;;;;4.95;65.86;97529.34;5111424;28;20644;-60
2023/01/30 09:55:00;;;;;;;18.20;15.17;;;;;;;4.69;65.97;97538.66;5110400;28;20572;-62
2023/01/30 09:57:27;;;;;;;18.53;15.33;;;;;;;4.42;66.42;97527.09;5108967;28;20247;-61
2023/01/30 09:59:58;;;;;;;19.23;15.23;;;;;;;4.19;67.24;97527.47;5110131;28;20221;-61
2023/01/30 10:02:36;;;;;;;17.17;14.47;;;;;;;3.80;68.33;97523.44;5113079;28;20228;-62
2023/01/30 10:05:04;;;;;;;18.90;15.07;;;;;;;3.19;70.80;97511.81;5111931;28;20216;-62
2023/01/30 10:07:38;;;;;;;18.93;15.47;;;;;;;2.96;71.17;97519.03;5111933;28;20205;-62
2023/01/30 10:10:10;;;;;;;18.73;15.43;;;;;;;3.15;72.17;97494.59;5110834;28;20204;-60
2023/01/30 10:12:44;;;;;;;18.43;14.30;;;;;;;4.20;69.36;97489.91;5112396;28;20201;-62
2023/01/30 10:15:22;;;;;;;19.53;15.10;;;;;;;5.18;65.12;97507.03;5113224;28;20189;-62
2023/01/30 10:17:57;;;;;;;19.87;15.47;;;;;;;5.84;62.21;97529.31;5132050;28;20194;-62
2023/01/30 10:20:31;;;;;;;20.40;15.87;;;;;;;5.81;61.54;97508.47;5133456;28;20197;-61
2023/01/30 10:23:19;;;;;;;16.07;14.37;;;;;;;5.70;63.39;97505.66;5130704;28;20204;-61
2023/01/30 10:25:47;;;;;;;16.43;14.67;;;;;;;5.82;61.50;97511.94;5120924;28;20223;-63
2023/01/30 10:28:18;;;;;;;16.83;14.97;;;;;;;6.28;61.40;97496.84;5113074;28;20216;-61
2023/01/30 10:30:46;;;;;;;18.37;15.30;;;;;;;6.00;60.48;97495.94;5109506;28;20202;-61
2023/01/30 10:33:22;;;;;;;18.70;15.17;;;;;;;5.82;62.12;97497.03;5111149;28;20201;-60
2023/01/30 10:35:59;;;;;;;18.83;16.03;;;;;;;5.45;64.46;97500.19;5110849;28;20208;-60
2023/01/30 10:38:33;;;;;;;18.83;15.17;;;;;;;5.50;62.46;97500.75;5112094;28;20207;-61
2023/01/30 10:41:02;;;;;;;19.73;16.10;;;;;;;5.12;63.92;97510.03;5114127;28;20201;-62
2023/01/30 10:43:32;;;;;;;20.27;16.90;;;;;;;5.02;64.16;97528.06;5111851;28;20212;-61
2023/01/30 10:46:07;;;;;;;20.20;15.83;;;;;;;4.68;65.25;97536.09;5111372;28;20212;-62
2023/01/30 10:48:55;;;;;;;18.43;16.07;;;;;;;4.27;66.24;97518.28;5110855;28;20197;-64
2023/01/30 10:51:49;;;;;;;19.23;15.57;;;;;;;4.13;68.93;97499.03;5111869;28;20227;-63
2023/01/30 10:54:19;;;;;;;22.07;15.67;;;;;;;3.87;69.72;97487.31;5091954;28;20201;-62
2023/01/30 10:56:50;;;;;;;20.13;16.33;;;;;;;3.89;70.73;97462.78;5110645;28;20201;-63
2023/01/30 10:59:23;;;;;;;18.30;15.40;;;;;;;3.92;69.88;97449.53;5113736;28;20208;-62
2023/01/30 11:01:58;;;;;;;24.23;15.87;;;;;;;4.12;69.92;97430.13;5115638;28;20564;-64
2023/01/30 11:04:30;;;;;;;18.93;15.73;;;;;;;4.56;67.42;97432.88;5113514;28;20197;-63
2023/01/30 11:07:00;;;;;;;21.87;15.73;;;;;;;4.83;66.37;97418.19;5111151;28;20201;-63
2023/01/30 11:09:38;;;;;;;18.67;15.60;;;;;;;5.36;65.20;97412.41;5110274;28;20204;-61
2023/01/30 11:12:05;;;;;;;19.23;16.27;;;;;;;5.69;63.36;97421.78;5112129;28;20539;-63
2023/01/30 11:14:50;;;;;;;19.50;16.33;;;;;;;5.63;61.04;97412.50;5111361;28;20216;-61
2023/01/30 11:17:18;;;;;;;19.07;15.27;;;;;;;6.02;61.79;97408.38;5111657;28;20216;-60
2023/01/30 11:19:45;;;;;;;18.63;15.30;;;;;;;6.88;59.19;97398.31;5111510;28;20216;-61
2023/01/30 11:22:14;;;;;;;18.77;16.00;;;;;;;7.94;55.46;97384.81;5111379;28;20204;-60
2023/01/30 11:24:43;;;;;;;19.10;16.10;;;;;;;9.04;54.36;97388.19;5111020;28;20216;-60
2023/01/30 11:27:11;;;;;;;17.77;14.80;;;;;;;9.65;51.16;97385.19;5110546;28;20205;-62
2023/01/30 11:29:39;;;;;;;18.13;15.43;;;;;;;9.31;51.23;97359.72;5111845;28;20236;-61
2023/01/30 11:32:12;;;;;;;19.77;17.67;;;;;;;9.87;48.36;97337.63;5116806;28;20209;-62